sensor_id;sensor_type;location;lat;lon;timestamp;pressure;altitude;pressure_sealevel;temperature;humidity
7297;BME280;40758;54.038;11.684;2023-01-29T00:00:12;102234.72;;;1.68;100.00
7297;BME280;40758;54.038;11.684;2023-01-29T00:02:41;102239.16;;;1.67;100.00
7297;BME280;40758;54.038;11.684;2023-01-29T00:05:11;102239.06;;;1.72;100.00
7297;BME280;40758;54.038;11.684;2023-01-29T00:08:01;102240.72;;;1.76;100.00
7297;BME280;40758;54.038;11.684;2023-01-29T00:10:29;102238.94;;;1.78;100.00
7297;BME280;40758;54.038;11.684;2023-01-29T00:12:58;102234.50;;;1.78;100.00
7297;BME280;40758;54.038;11.684;2023-01-29T00:15:27;102246.81;;;1.79;100.00
7297;BME280;40758;54.038;11.684;2023-01-29T00:17:57;102249.44;;;1.81;100.00
7297;BME280;40758;54.038;11.684;2023-01-29T00:20:27;102230.97;;;1.78;100.00
7297;BME280;40758;54.038;11.684;2023-01-29T00:22:56;102223.91;;;1.78;100.00
7297;BME280;40758;54.038;11.684;2023-01-29T00:25:25;102216.75;;;1.82;100.00
7297;BME280;40758;54.038;11.684;2023-01-29T00:27:53;102206.25;;;1.77;100.00
7297;BME280;40758;54.038;11.684;2023-01-29T00:30:22;102202.66;;;1.80;100.00
7297;BME280;40758;54.038;11.684;2023-01-29T00:32:51;102186.81;;;1.78;100.00
7297;BME280;40758;54.038;11.684;2023-01-29T00:35:20;102187.69;;;1.79;100.00
7297;BME280;40758;54.038;11.684;2023-01-29T00:37:50;102176.06;;;1.84;100.00
7297;BME280;40758;54.038;11.684;2023-01-29T00:40:19;102171.63;;;1.85;100.00
7297;BME280;40758;54.038;11.684;2023-01-29T00:42:47;102182.13;;;1.88;100.00
7297;BME280;40758;54.038;11.684;2023-01-29T00:45:34;102193.63;;;1.88;100.00
7297;BME280;40758;54.038;11.684;2023-01-29T00:48:03;102189.16;;;1.90;100.00
7297;BME280;40758;54.038;11.684;2023-01-29T00:50:32;102194.41;;;1.92;100.00
7297;BME280;40758;54.038;11.684;2023-01-29T00:53:02;102186.56;;;1.87;100.00
7297;BME280;40758;54.038;11.684;2023-01-29T00:55:31;102185.56;;;1.91;100.00
7297;BME280;40758;54.038;11.684;2023-01-29T00:58:00;102181.22;;;1.90;100.00
7297;BME280;40758;54.038;11.684;2023-01-29T01:00:28;102183.78;;;1.92;100.00
7297;BME280;40758;54.038;11.684;2023-01-29T01:03:00;102182.91;;;1.91;100.00
7297;BME280;40758;54.038;11.684;2023-01-29T01:05:33;102176.66;;;1.95;100.00
7297;BME280;40758;54.038;11.684;2023-01-29T01:08:05;102178.47;;;1.93;100.00
7297;BME280;40758;54.038;11.684;2023-01-29T01:11:00;102177.72;;;1.88;100.00
7297;BME280;40758;54.038;11.684;2023-01-29T01:13:28;102186.28;;;1.98;100.00
7297;BME280;40758;54.038;11.684;2023-01-29T01:16:00;102188.00;;;2.00;100.00
7297;BME280;40758;54.038;11.684;2023-01-29T01:18:30;102185.31;;;2.03;100.00
7297;BME280;40758;54.038;11.684;2023-01-29T01:20:58;102182.53;;;2.08;100.00
7297;BME280;40758;54.038;11.684;2023-01-29T01:23:28;102188.63;;;2.12;100.00
7297;BME280;40758;54.038;11.684;2023-01-29T01:25:57;102183.31;;;2.12;100.00
7297;BME280;40758;54.038;11.684;2023-01-29T01:28:26;102188.56;;;2.15;100.00
7297;BME280;40758;54.038;11.684;2023-01-29T01:30:55;102193.75;;;2.18;100.00
7297;BME280;40758;54.038;11.684;2023-01-29T01:33:24;102188.28;;;2.25;100.00
7297;BME280;40758;54.038;11.684;2023-01-29T01:35:53;102187.50;;;2.22;100.00
7297;BME280;40758;54.038;11.684;2023-01-29T01:38:21;102183.69;;;2.32;100.00
7297;BME280;40758;54.038;11.684;2023-01-29T01:40:51;102189.69;;;2.38;100.00
7297;BME280;40758;54.038;11.684;2023-01-29T01:43:19;102190.56;;;2.39;100.00
7297;BME280;40758;54.038;11.684;2023-01-29T01:45:48;102194.19;;;2.35;100.00
7297;BME280;40758;54.038;11.684;2023-01-29T01:48:21;102191.34;;;2.42;100.00
7297;BME280;40758;54.038;11.684;2023-01-29T01:50:57;102190.31;;;2.48;100.00
7297;BME280;40758;54.038;11.684;2023-01-29T01:53:35;102176.97;;;2.51;100.00
7297;BME280;40758;54.038;11.684;2023-01-29T01:56:10;102174.22;;;2.54;100.00
7297;BME280;40758;54.038;11.684;2023-01-29T01:58:43;102178.56;;;2.58;100.00
7297;BME280;40758;54.038;11.684;2023-01-29T02:01:13;102171.41;;;2.60;100.00
7297;BME280;40758;54.038;11.684;2023-01-29T02:03:53;102169.63;;;2.61;100.00
7297;BME280;40758;54.038;11.684;2023-01-29T02:06:41;102171.31;;;2.65;100.00
7297;BME280;40758;54.038;11.684;2023-01-29T02:09:33;102158.06;;;2.63;100.00
7297;BME280;40758;54.038;11.684;2023-01-29T02:12:07;102151.00;;;2.64;100.00
7297;BME280;40758;54.038;11.684;2023-01-29T02:14:39;102147.34;;;2.66;100.00
7297;BME280;40758;54.038;11.684;2023-01-29T02:17:11;102153.50;;;2.68;100.00
7297;BME280;40758;54.038;11.684;2023-01-29T02:19:49;102149.03;;;2.70;100.00
7297;BME280;40758;54.038;11.684;2023-01-29T02:23:07;102152.59;;;2.69;100.00
7297;BME280;40758;54.038;11.684;2023-01-29T02:26:18;102147.19;;;2.72;100.00
7297;BME280;40758;54.038;11.684;2023-01-29T02:29:01;102147.13;;;2.75;100.00
7297;BME280;40758;54.038;11.684;2023-01-29T02:32:08;102135.75;;;2.70;100.00
7297;BME280;40758;54.038;11.684;2023-01-29T02:34:53;102128.78;;;2.66;100.00
7297;BME280;40758;54.038;11.684;2023-01-29T02:37:54;102113.88;;;2.62;100.00
7297;BME280;40758;54.038;11.684;2023-01-29T02:40:30;102125.19;;;2.69;100.00
7297;BME280;40758;54.038;11.684;2023-01-29T02:43:14;102127.81;;;2.70;100.00
7297;BME280;40758;54.038;11.684;2023-01-29T02:45:52;102122.41;;;2.73;100.00
7297;BME280;40758;54.038;11.684;2023-01-29T02:48:38;102116.13;;;2.76;100.00
7297;BME280;40758;54.038;11.684;2023-01-29T02:51:15;102106.28;;;2.79;100.00
7297;BME280;40758;54.038;11.684;2023-01-29T02:53:57;102099.16;;;2.81;100.00
7297;BME280;40758;54.038;11.684;2023-01-29T02:56:33;102098.28;;;2.81;100.00
7297;BME280;40758;54.038;11.684;2023-01-29T02:59:08;102094.81;;;2.79;100.00
7297;BME280;40758;54.038;11.684;2023-01-29T03:01:48;102100.25;;;2.74;100.00
7297;BME280;40758;54.038;11.684;2023-01-29T03:04:25;102092.28;;;2.74;100.00
7297;BME280;40758;54.038;11.684;2023-01-29T03:07:00;102087.16;;;2.68;100.00
7297;BME280;40758;54.038;11.684;2023-01-29T03:09:34;102093.19;;;2.73;100.00
7297;BME280;40758;54.038;11.684;2023-01-29T03:12:12;102086.97;;;2.74;100.00
7297;BME280;40758;54.038;11.684;2023-01-29T03:14:59;102076.38;;;2.74;100.00
7297;BME280;40758;54.038;11.684;2023-01-29T03:17:46;102059.41;;;2.80;100.00
7297;BME280;40758;54.038;11.684;2023-01-29T03:20:22;102057.75;;;2.76;100.00
7297;BME280;40758;54.038;11.684;2023-01-29T03:23:01;102056.00;;;2.75;100.00
7297;BME280;40758;54.038;11.684;2023-01-29T03:25:34;102063.03;;;2.77;100.00
7297;BME280;40758;54.038;11.684;2023-01-29T03:28:22;102062.38;;;2.69;100.00
7297;BME280;40758;54.038;11.684;2023-01-29T03:31:12;102070.28;;;2.71;100.00
7297;BME280;40758;54.038;11.684;2023-01-29T03:34:08;102072.19;;;2.66;100.00
7297;BME280;40758;54.038;11.684;2023-01-29T03:36:51;102066.81;;;2.69;100.00
7297;BME280;40758;54.038;11.684;2023-01-29T03:39:25;102061.56;;;2.66;100.00
7297;BME280;40758;54.038;11.684;2023-01-29T03:42:01;102061.66;;;2.64;100.00
7297;BME280;40758;54.038;11.684;2023-01-29T03:44:43;102065.94;;;2.68;100.00
7297;BME280;40758;54.038;11.684;2023-01-29T03:47:21;102074.81;;;2.67;100.00
7297;BME280;40758;54.038;11.684;2023-01-29T03:50:00;102083.50;;;2.72;100.00
7297;BME280;40758;54.038;11.684;2023-01-29T03:52:41;102083.59;;;2.69;100.00
7297;BME280;40758;54.038;11.684;2023-01-29T03:55:16;102079.97;;;2.72;100.00
7297;BME280;40758;54.038;11.684;2023-01-29T03:57:56;102074.56;;;2.76;100.00
7297;BME280;40758;54.038;11.684;2023-01-29T04:00:29;102075.47;;;2.75;100.00
7297;BME280;40758;54.038;11.684;2023-01-29T04:03:07;102072.88;;;2.72;100.00
7297;BME280;40758;54.038;11.684;2023-01-29T04:05:43;102078.19;;;2.72;100.00
7297;BME280;40758;54.038;11.684;2023-01-29T04:08:21;102069.28;;;2.75;100.00
7297;BME280;40758;54.038;11.684;2023-01-29T04:10:58;102079.03;;;2.74;100.00
7297;BME280;40758;54.038;11.684;2023-01-29T04:13:30;102081.47;;;2.82;100.00
7297;BME280;40758;54.038;11.684;2023-01-29T04:16:03;102062.00;;;2.81;100.00
7297;BME280;40758;54.038;11.684;2023-01-29T04:18:33;102056.69;;;2.81;100.00
7297;BME280;40758;54.038;11.684;2023-01-29T04:21:04;102058.53;;;2.79;100.00
7297;BME280;40758;54.038;11.684;2023-01-29T04:23:34;102074.44;;;2.79;100.00
7297;BME280;40758;54.038;11.684;2023-01-29T04:29:17;102067.09;;;2.89;100.00
7297;BME280;40758;54.038;11.684;2023-01-29T04:32:01;102068.88;;;2.89;100.00
7297;BME280;40758;54.038;11.684;2023-01-29T04:34:44;102059.06;;;2.91;100.00
7297;BME280;40758;54.038;11.684;2023-01-29T04:37:31;102062.66;;;2.90;100.00
7297;BME280;40758;54.038;11.684;2023-01-29T04:40:14;102064.44;;;2.89;100.00
7297;BME280;40758;54.038;11.684;2023-01-29T04:42:53;102071.41;;;2.92;100.00
7297;BME280;40758;54.038;11.684;2023-01-29T04:45:40;102066.75;;;3.00;100.00
7297;BME280;40758;54.038;11.684;2023-01-29T04:48:19;102071.03;;;3.04;100.00
7297;BME280;40758;54.038;11.684;2023-01-29T04:50:57;102066.75;;;3.00;100.00
7297;BME280;40758;54.038;11.684;2023-01-29T04:53:40;102056.22;;;2.97;100.00
7297;BME280;40758;54.038;11.684;2023-01-29T04:56:20;102054.59;;;2.93;100.00
7297;BME280;40758;54.038;11.684;2023-01-29T04:58:59;102056.22;;;2.97;100.00
7297;BME280;40758;54.038;11.684;2023-01-29T05:01:32;102050.81;;;3.00;100.00
7297;BME280;40758;54.038;11.684;2023-01-29T05:04:06;102049.88;;;3.02;100.00
7297;BME280;40758;54.038;11.684;2023-01-29T05:06:36;102054.31;;;3.02;100.00
7297;BME280;40758;54.038;11.684;2023-01-29T05:09:08;102049.81;;;3.04;100.00
7297;BME280;40758;54.038;11.684;2023-01-29T05:11:39;102039.34;;;2.99;100.00
7297;BME280;40758;54.038;11.684;2023-01-29T05:14:12;102043.78;;;2.99;100.00
7297;BME280;40758;54.038;11.684;2023-01-29T05:16:45;102054.41;;;2.99;100.00
7297;BME280;40758;54.038;11.684;2023-01-29T05:19:15;102041.94;;;3.01;100.00
7297;BME280;40758;54.038;11.684;2023-01-29T05:21:47;102027.66;;;3.05;100.00
7297;BME280;40758;54.038;11.684;2023-01-29T05:24:20;102026.81;;;3.03;100.00
7297;BME280;40758;54.038;11.684;2023-01-29T05:26:51;102017.91;;;3.05;100.00
7297;BME280;40758;54.038;11.684;2023-01-29T05:29:43;102014.34;;;3.06;100.00
7297;BME280;40758;54.038;11.684;2023-01-29T05:32:13;102007.28;;;3.05;100.00
7297;BME280;40758;54.038;11.684;2023-01-29T05:34:42;102011.84;;;3.02;100.00
7297;BME280;40758;54.038;11.684;2023-01-29T05:37:11;101989.63;;;3.04;100.00
7297;BME280;40758;54.038;11.684;2023-01-29T05:39:40;101982.50;;;3.05;100.00
7297;BME280;40758;54.038;11.684;2023-01-29T05:42:09;101984.47;;;3.00;100.00
7297;BME280;40758;54.038;11.684;2023-01-29T05:44:37;101988.84;;;3.01;100.00
7297;BME280;40758;54.038;11.684;2023-01-29T05:47:08;101981.75;;;3.01;100.00
7297;BME280;40758;54.038;11.684;2023-01-29T05:49:37;101990.59;;;3.02;100.00
7297;BME280;40758;54.038;11.684;2023-01-29T05:52:05;101984.47;;;3.00;100.00
7297;BME280;40758;54.038;11.684;2023-01-29T05:54:34;101987.13;;;3.00;100.00
7297;BME280;40758;54.038;11.684;2023-01-29T05:57:03;101999.31;;;3.05;100.00
7297;BME280;40758;54.038;11.684;2023-01-29T05:59:32;101988.75;;;3.04;100.00
7297;BME280;40758;54.038;11.684;2023-01-29T06:02:00;102003.88;;;3.02;100.00
7297;BME280;40758;54.038;11.684;2023-01-29T06:04:28;102007.41;;;3.02;100.00
7297;BME280;40758;54.038;11.684;2023-01-29T06:06:57;101981.59;;;3.06;100.00
7297;BME280;40758;54.038;11.684;2023-01-29T06:09:25;101982.56;;;3.03;100.00
7297;BME280;40758;54.038;11.684;2023-01-29T06:11:53;101981.56;;;3.07;100.00
7297;BME280;40758;54.038;11.684;2023-01-29T06:14:24;101975.34;;;3.08;100.00
7297;BME280;40758;54.038;11.684;2023-01-29T06:16:52;101970.13;;;3.05;100.00
7297;BME280;40758;54.038;11.684;2023-01-29T06:19:20;101956.88;;;3.04;100.00
7297;BME280;40758;54.038;11.684;2023-01-29T06:21:49;101956.88;;;3.04;100.00
7297;BME280;40758;54.038;11.684;2023-01-29T06:24:17;101969.34;;;3.02;100.00
7297;BME280;40758;54.038;11.684;2023-01-29T06:26:45;101953.63;;;2.96;100.00
7297;BME280;40758;54.038;11.684;2023-01-29T06:29:14;101956.28;;;2.96;100.00
7297;BME280;40758;54.038;11.684;2023-01-29T06:31:44;101930.53;;;2.98;100.00
7297;BME280;40758;54.038;11.684;2023-01-29T06:34:12;101951.56;;;3.04;100.00
7297;BME280;40758;54.038;11.684;2023-01-29T06:36:41;101930.31;;;3.04;100.00
7297;BME280;40758;54.038;11.684;2023-01-29T06:39:10;101927.63;;;3.05;100.00
7297;BME280;40758;54.038;11.684;2023-01-29T06:41:38;101933.81;;;3.06;100.00
7297;BME280;40758;54.038;11.684;2023-01-29T06:44:06;101935.56;;;3.07;100.00
7297;BME280;40758;54.038;11.684;2023-01-29T06:46:35;101944.31;;;3.09;100.00
7297;BME280;40758;54.038;11.684;2023-01-29T06:49:05;101942.50;;;3.11;100.00
7297;BME280;40758;54.038;11.684;2023-01-29T06:51:33;101962.00;;;3.10;100.00
7297;BME280;40758;54.038;11.684;2023-01-29T06:54:02;101952.19;;;3.12;100.00
7297;BME280;40758;54.038;11.684;2023-01-29T06:56:32;101936.31;;;3.10;100.00
7297;BME280;40758;54.038;11.684;2023-01-29T06:59:00;101944.28;;;3.10;100.00
7297;BME280;40758;54.038;11.684;2023-01-29T07:01:29;101944.31;;;3.09;100.00
7297;BME280;40758;54.038;11.684;2023-01-29T07:04:04;101946.22;;;3.05;100.00
7297;BME280;40758;54.038;11.684;2023-01-29T07:06:32;101940.88;;;3.07;100.00
7297;BME280;40758;54.038;11.684;2023-01-29T07:09:01;101935.63;;;3.04;100.00
7297;BME280;40758;54.038;11.684;2023-01-29T07:11:29;101937.38;;;3.05;100.00
7297;BME280;40758;54.038;11.684;2023-01-29T07:13:57;101938.22;;;3.07;100.00
7297;BME280;40758;54.038;11.684;2023-01-29T07:16:26;101950.50;;;3.09;100.00
7297;BME280;40758;54.038;11.684;2023-01-29T07:18:54;101949.63;;;3.09;100.00
7297;BME280;40758;54.038;11.684;2023-01-29T07:21:24;101951.25;;;3.14;100.00
7297;BME280;40758;54.038;11.684;2023-01-29T07:23:53;101944.97;;;3.15;100.00
7297;BME280;40758;54.038;11.684;2023-01-29T07:26:21;101958.22;;;3.17;100.00
7297;BME280;40758;54.038;11.684;2023-01-29T07:28:49;101954.72;;;3.15;100.00
7297;BME280;40758;54.038;11.684;2023-01-29T07:31:18;101947.56;;;3.18;100.00
7297;BME280;40758;54.038;11.684;2023-01-29T07:33:46;101948.22;;;3.25;100.00
7297;BME280;40758;54.038;11.684;2023-01-29T07:36:15;101941.16;;;3.24;100.00
7297;BME280;40758;54.038;11.684;2023-01-29T07:38:48;101944.53;;;3.29;100.00
7297;BME280;40758;54.038;11.684;2023-01-29T07:41:17;101947.19;;;3.29;100.00
7297;BME280;40758;54.038;11.684;2023-01-29T07:43:46;101926.06;;;3.26;100.00
7297;BME280;40758;54.038;11.684;2023-01-29T07:46:15;101923.44;;;3.24;100.00
7297;BME280;40758;54.038;11.684;2023-01-29T07:48:43;101916.31;;;3.27;100.00
7297;BME280;40758;54.038;11.684;2023-01-29T07:51:12;101905.59;;;3.28;100.00
7297;BME280;40758;54.038;11.684;2023-01-29T07:53:40;101898.47;;;3.30;100.00
7297;BME280;40758;54.038;11.684;2023-01-29T07:56:11;101909.75;;;3.37;100.00
7297;BME280;40758;54.038;11.684;2023-01-29T07:58:40;101910.69;;;3.34;100.00
7297;BME280;40758;54.038;11.684;2023-01-29T08:01:08;101920.19;;;3.41;100.00
7297;BME280;40758;54.038;11.684;2023-01-29T08:03:36;101915.94;;;3.37;100.00
7297;BME280;40758;54.038;11.684;2023-01-29T08:06:06;101920.41;;;3.35;100.00
7297;BME280;40758;54.038;11.684;2023-01-29T08:08:34;101911.75;;;3.30;100.00
7297;BME280;40758;54.038;11.684;2023-01-29T08:11:03;101915.22;;;3.32;100.00
7297;BME280;40758;54.038;11.684;2023-01-29T08:13:33;101910.78;;;3.33;100.00
7297;BME280;40758;54.038;11.684;2023-01-29T08:16:03;101915.09;;;3.35;100.00
7297;BME280;40758;54.038;11.684;2023-01-29T08:18:32;101916.75;;;3.39;100.00
7297;BME280;40758;54.038;11.684;2023-01-29T08:21:00;101920.19;;;3.41;100.00
7297;BME280;40758;54.038;11.684;2023-01-29T08:23:29;101915.97;;;3.36;100.00
7297;BME280;40758;54.038;11.684;2023-01-29T08:25:58;101912.28;;;3.40;100.00
7297;BME280;40758;54.038;11.684;2023-01-29T08:28:26;101911.44;;;3.39;100.00
7297;BME280;40758;54.038;11.684;2023-01-29T08:30:56;101913.34;;;3.34;100.00
7297;BME280;40758;54.038;11.684;2023-01-29T08:33:25;101919.41;;;3.39;100.00
7297;BME280;40758;54.038;11.684;2023-01-29T08:36:06;101936.25;;;3.38;100.00
7297;BME280;40758;54.038;11.684;2023-01-29T08:38:35;101939.63;;;3.43;100.00
7297;BME280;40758;54.038;11.684;2023-01-29T08:41:04;101942.28;;;3.43;100.00
7297;BME280;40758;54.038;11.684;2023-01-29T08:43:32;101943.94;;;3.46;100.00
7297;BME280;40758;54.038;11.684;2023-01-29T08:46:06;101945.84;;;3.42;100.00
7297;BME280;40758;54.038;11.684;2023-01-29T08:48:34;101937.78;;;3.45;100.00
7297;BME280;40758;54.038;11.684;2023-01-29T08:51:03;101928.88;;;3.46;100.00
7297;BME280;40758;54.038;11.684;2023-01-29T08:53:32;101930.63;;;3.47;100.00
7297;BME280;40758;54.038;11.684;2023-01-29T08:56:01;101921.69;;;3.50;100.00
7297;BME280;40758;54.038;11.684;2023-01-29T08:58:29;101925.13;;;3.52;100.00
7297;BME280;40758;54.038;11.684;2023-01-29T09:01:07;101907.53;;;3.49;100.00
7297;BME280;40758;54.038;11.684;2023-01-29T09:03:36;101905.75;;;3.50;100.00
7297;BME280;40758;54.038;11.684;2023-01-29T09:06:08;101923.09;;;3.60;100.00
7297;BME280;40758;54.038;11.684;2023-01-29T09:08:37;101905.13;;;3.66;100.00
7297;BME280;40758;54.038;11.684;2023-01-29T09:11:06;101907.91;;;3.63;100.00
7297;BME280;40758;54.038;11.684;2023-01-29T09:13:35;101906.88;;;3.67;100.00
7297;BME280;40758;54.038;11.684;2023-01-29T09:16:05;101906.00;;;3.67;100.00
7297;BME280;40758;54.038;11.684;2023-01-29T09:18:34;101905.13;;;3.66;100.00
7297;BME280;40758;54.038;11.684;2023-01-29T09:21:03;101898.78;;;3.71;100.00
7297;BME280;40758;54.038;11.684;2023-01-29T09:23:31;101890.00;;;3.69;100.00
7297;BME280;40758;54.038;11.684;2023-01-29T09:26:00;101872.38;;;3.66;100.00
7297;BME280;40758;54.038;11.684;2023-01-29T09:28:28;101862.97;;;3.57;100.00
7297;BME280;40758;54.038;11.684;2023-01-29T09:31:00;101854.59;;;3.68;100.00
7297;BME280;40758;54.038;11.684;2023-01-29T09:33:30;101857.41;;;3.63;100.00
7297;BME280;40758;54.038;11.684;2023-01-29T09:35:58;101858.44;;;3.59;100.00
7297;BME280;40758;54.038;11.684;2023-01-29T09:38:27;101866.31;;;3.62;100.00
7297;BME280;40758;54.038;11.684;2023-01-29T09:41:06;101858.22;;;3.65;100.00
7297;BME280;40758;54.038;11.684;2023-01-29T09:43:45;101852.09;;;3.63;100.00
7297;BME280;40758;54.038;11.684;2023-01-29T09:46:21;101847.66;;;3.64;100.00
7297;BME280;40758;54.038;11.684;2023-01-29T09:49:00;101840.69;;;3.60;100.00
7297;BME280;40758;54.038;11.684;2023-01-29T09:51:37;101839.69;;;3.64;100.00
7297;BME280;40758;54.038;11.684;2023-01-29T09:54:17;101830.72;;;3.66;100.00
7297;BME280;40758;54.038;11.684;2023-01-29T09:56:52;101824.13;;;3.77;100.00
7297;BME280;40758;54.038;11.684;2023-01-29T09:59:29;101823.34;;;3.75;100.00
7297;BME280;40758;54.038;11.684;2023-01-29T10:02:08;101824.84;;;3.82;100.00
7297;BME280;40758;54.038;11.684;2023-01-29T10:05:09;101812.56;;;3.78;100.00
7297;BME280;40758;54.038;11.684;2023-01-29T10:08:23;101807.03;;;3.84;100.00
7297;BME280;40758;54.038;11.684;2023-01-29T10:11:07;101805.00;;;3.90;100.00
7297;BME280;40758;54.038;11.684;2023-01-29T10:13:47;101814.53;;;3.96;100.00
7297;BME280;40758;54.038;11.684;2023-01-29T10:16:34;101807.66;;;3.90;100.00
7297;BME280;40758;54.038;11.684;2023-01-29T10:19:31;101807.59;;;3.92;100.00
7297;BME280;40758;54.038;11.684;2023-01-29T10:22:55;101790.72;;;3.93;100.00
7297;BME280;40758;54.038;11.684;2023-01-29T10:25:28;101781.84;;;3.94;100.00
7297;BME280;40758;54.038;11.684;2023-01-29T10:27:58;101788.88;;;3.95;100.00
7297;BME280;40758;54.038;11.684;2023-01-29T10:30:33;101796.16;;;3.90;100.00
7297;BME280;40758;54.038;11.684;2023-01-29T10:33:12;101772.94;;;3.95;100.00
7297;BME280;40758;54.038;11.684;2023-01-29T10:35:47;101786.38;;;3.90;100.00
7297;BME280;40758;54.038;11.684;2023-01-29T10:38:36;101789.72;;;3.95;100.00
7297;BME280;40758;54.038;11.684;2023-01-29T10:41:47;101785.28;;;3.96;100.00
7297;BME280;40758;54.038;11.684;2023-01-29T10:44:30;101777.78;;;3.84;100.00
7297;BME280;40758;54.038;11.684;2023-01-29T10:47:27;101776.13;;;3.81;100.00
7297;BME280;40758;54.038;11.684;2023-01-29T10:50:36;101773.03;;;3.70;100.00
7297;BME280;40758;54.038;11.684;2023-01-29T10:53:29;101770.84;;;3.80;100.00
7297;BME280;40758;54.038;11.684;2023-01-29T10:56:19;101759.41;;;3.78;100.00
7297;BME280;40758;54.038;11.684;2023-01-29T10:58:56;101752.25;;;3.80;100.00
7297;BME280;40758;54.038;11.684;2023-01-29T11:01:26;101753.75;;;3.87;100.00
7297;BME280;40758;54.038;11.684;2023-01-29T11:03:58;101750.03;;;3.91;100.00
7297;BME280;40758;54.038;11.684;2023-01-29T11:06:29;101753.06;;;3.82;100.00
7297;BME280;40758;54.038;11.684;2023-01-29T11:09:07;101747.16;;;3.74;100.00
7297;BME280;40758;54.038;11.684;2023-01-29T11:11:45;101732.81;;;3.78;100.00
7297;BME280;40758;54.038;11.684;2023-01-29T11:14:20;101737.03;;;3.83;100.00
7297;BME280;40758;54.038;11.684;2023-01-29T11:16:51;101721.28;;;3.79;100.00
7297;BME280;40758;54.038;11.684;2023-01-29T11:19:37;101726.41;;;3.83;100.00
7297;BME280;40758;54.038;11.684;2023-01-29T11:22:13;101715.72;;;3.85;100.00
7297;BME280;40758;54.038;11.684;2023-01-29T11:24:43;101712.94;;;3.88;100.00
7297;BME280;40758;54.038;11.684;2023-01-29T11:27:23;101711.41;;;3.82;100.00
7297;BME280;40758;54.038;11.684;2023-01-29T11:29:56;101715.28;;;3.74;100.00
7297;BME280;40758;54.038;11.684;2023-01-29T11:32:28;101709.47;;;3.64;100.00
7297;BME280;40758;54.038;11.684;2023-01-29T11:35:02;101709.28;;;3.69;100.00
7297;BME280;40758;54.038;11.684;2023-01-29T11:37:35;101706.09;;;3.59;100.00
7297;BME280;40758;54.038;11.684;2023-01-29T11:40:35;101704.41;;;3.58;100.00
7297;BME280;40758;54.038;11.684;2023-01-29T11:43:27;101701.84;;;3.55;100.00
7297;BME280;40758;54.038;11.684;2023-01-29T11:46:00;101701.88;;;3.53;100.00
7297;BME280;40758;54.038;11.684;2023-01-29T11:48:33;101701.03;;;3.53;100.00
7297;BME280;40758;54.038;11.684;2023-01-29T11:51:07;101695.72;;;3.53;100.00
7297;BME280;40758;54.038;11.684;2023-01-29T11:53:40;101696.34;;;3.59;100.00
7297;BME280;40758;54.038;11.684;2023-01-29T11:56:21;101691.16;;;3.56;100.00
7297;BME280;40758;54.038;11.684;2023-01-29T11:58:51;101687.59;;;3.57;100.00
7297;BME280;40758;54.038;11.684;2023-01-29T12:01:31;101680.63;;;3.53;100.00
7297;BME280;40758;54.038;11.684;2023-01-29T12:04:03;101673.47;;;3.55;100.00
7297;BME280;40758;54.038;11.684;2023-01-29T12:06:43;101677.75;;;3.59;100.00
7297;BME280;40758;54.038;11.684;2023-01-29T12:09:18;101669.66;;;3.62;100.00
7297;BME280;40758;54.038;11.684;2023-01-29T12:11:49;101666.50;;;3.75;100.00
7297;BME280;40758;54.038;11.684;2023-01-29T12:14:27;101661.44;;;3.69;100.00
7297;BME280;40758;54.038;11.684;2023-01-29T12:17:05;101658.03;;;3.65;100.00
7297;BME280;40758;54.038;11.684;2023-01-29T12:19:43;101663.34;;;3.65;100.00
7297;BME280;40758;54.038;11.684;2023-01-29T12:22:31;101643.88;;;3.64;100.00
7297;BME280;40758;54.038;11.684;2023-01-29T12:25:17;101654.63;;;3.61;100.00
7297;BME280;40758;54.038;11.684;2023-01-29T12:27:57;101646.41;;;3.67;100.00
7297;BME280;40758;54.038;11.684;2023-01-29T12:30:34;101648.25;;;3.65;100.00
7297;BME280;40758;54.038;11.684;2023-01-29T12:33:13;101640.03;;;3.72;100.00
7297;BME280;40758;54.038;11.684;2023-01-29T12:35:52;101627.56;;;3.74;100.00
7297;BME280;40758;54.038;11.684;2023-01-29T12:38:23;101645.25;;;3.75;100.00
7297;BME280;40758;54.038;11.684;2023-01-29T12:40:56;101638.06;;;3.77;100.00
7297;BME280;40758;54.038;11.684;2023-01-29T12:43:34;101623.84;;;3.78;100.00
7297;BME280;40758;54.038;11.684;2023-01-29T12:46:19;101625.38;;;3.83;100.00
7297;BME280;40758;54.038;11.684;2023-01-29T12:48:49;101612.03;;;3.85;100.00
7297;BME280;40758;54.038;11.684;2023-01-29T12:51:22;101590.53;;;3.91;100.00
7297;BME280;40758;54.038;11.684;2023-01-29T12:53:55;101593.22;;;3.89;100.00
7297;BME280;40758;54.038;11.684;2023-01-29T12:56:30;101602.94;;;3.90;100.00
7297;BME280;40758;54.038;11.684;2023-01-29T12:59:08;101585.25;;;3.89;100.00
7297;BME280;40758;54.038;11.684;2023-01-29T13:01:49;101581.63;;;3.92;100.00
7297;BME280;40758;54.038;11.684;2023-01-29T13:04:31;101564.75;;;3.93;100.00
7297;BME280;40758;54.038;11.684;2023-01-29T13:07:12;101577.84;;;3.97;100.00
7297;BME280;40758;54.038;11.684;2023-01-29T13:09:47;101568.13;;;3.96;100.00
7297;BME280;40758;54.038;11.684;2023-01-29T13:12:19;101574.31;;;3.97;100.00
7297;BME280;40758;54.038;11.684;2023-01-29T13:14:55;101556.88;;;3.90;100.00
7297;BME280;40758;54.038;11.684;2023-01-29T13:17:32;101571.78;;;3.94;100.00
7297;BME280;40758;54.038;11.684;2023-01-29T13:20:12;101565.09;;;4.05;100.00
7297;BME280;40758;54.038;11.684;2023-01-29T13:22:46;101569.47;;;4.06;100.00
7297;BME280;40758;54.038;11.684;2023-01-29T13:25:18;101557.97;;;4.06;100.00
7297;BME280;40758;54.038;11.684;2023-01-29T13:27:48;101556.56;;;3.97;100.00
7297;BME280;40758;54.038;11.684;2023-01-29T13:30:27;101547.25;;;4.07;100.00
7297;BME280;40758;54.038;11.684;2023-01-29T13:32:59;101548.81;;;4.13;100.00